sensor_id;sensor_type;location;lat;lon;timestamp;temperature;humidity
68578;SHT31;61668;45.388;11.784;2023-02-28T00:00:51;4.45;56.06
68578;SHT31;61668;45.388;11.784;2023-02-28T00:03:17;4.43;56.17
68578;SHT31;61668;45.388;11.784;2023-02-28T00:05:43;4.42;56.33
68578;SHT31;61668;45.388;11.784;2023-02-28T00:08:09;4.40;56.30
68578;SHT31;61668;45.388;11.784;2023-02-28T00:10:35;4.40;56.34
68578;SHT31;61668;45.388;11.784;2023-02-28T00:13:02;4.39;56.34
68578;SHT31;61668;45.388;11.784;2023-02-28T00:15:31;4.40;56.27
68578;SHT31;61668;45.388;11.784;2023-02-28T00:17:58;4.39;56.33
68578;SHT31;61668;45.388;11.784;2023-02-28T00:20:24;4.39;56.45
68578;SHT31;61668;45.388;11.784;2023-02-28T00:22:51;4.39;56.42
68578;SHT31;61668;45.388;11.784;2023-02-28T00:25:20;4.37;56.26
68578;SHT31;61668;45.388;11.784;2023-02-28T00:27:49;4.36;56.14
68578;SHT31;61668;45.388;11.784;2023-02-28T00:30:16;4.36;56.06
68578;SHT31;61668;45.388;11.784;2023-02-28T00:32:45;4.36;56.15
68578;SHT31;61668;45.388;11.784;2023-02-28T00:35:11;4.35;56.18
68578;SHT31;61668;45.388;11.784;2023-02-28T00:37:37;4.35;56.12
68578;SHT31;61668;45.388;11.784;2023-02-28T00:40:03;4.34;56.17
68578;SHT31;61668;45.388;11.784;2023-02-28T00:42:31;4.34;56.18
68578;SHT31;61668;45.388;11.784;2023-02-28T00:44:58;4.33;56.23
68578;SHT31;61668;45.388;11.784;2023-02-28T00:47:25;4.32;56.37
68578;SHT31;61668;45.388;11.784;2023-02-28T00:49:51;4.31;56.40
68578;SHT31;61668;45.388;11.784;2023-02-28T00:52:16;4.30;56.49
68578;SHT31;61668;45.388;11.784;2023-02-28T00:54:42;4.28;56.60
68578;SHT31;61668;45.388;11.784;2023-02-28T00:57:08;4.27;56.67
68578;SHT31;61668;45.388;11.784;2023-02-28T00:59:33;4.25;56.69
68578;SHT31;61668;45.388;11.784;2023-02-28T01:02:00;4.24;56.77
68578;SHT31;61668;45.388;11.784;2023-02-28T01:04:25;4.22;56.82
68578;SHT31;61668;45.388;11.784;2023-02-28T01:06:51;4.21;56.89
68578;SHT31;61668;45.388;11.784;2023-02-28T01:09:17;4.20;56.85
68578;SHT31;61668;45.388;11.784;2023-02-28T01:11:43;4.18;56.71
68578;SHT31;61668;45.388;11.784;2023-02-28T01:14:11;4.17;56.76
68578;SHT31;61668;45.388;11.784;2023-02-28T01:16:39;4.17;56.71
68578;SHT31;61668;45.388;11.784;2023-02-28T01:19:04;4.17;56.65
68578;SHT31;61668;45.388;11.784;2023-02-28T01:21:30;4.17;56.70
68578;SHT31;61668;45.388;11.784;2023-02-28T01:23:56;4.17;56.64
68578;SHT31;61668;45.388;11.784;2023-02-28T01:26:23;4.18;56.76
68578;SHT31;61668;45.388;11.784;2023-02-28T01:28:49;4.17;56.79
68578;SHT31;61668;45.388;11.784;2023-02-28T01:31:17;4.16;56.70
68578;SHT31;61668;45.388;11.784;2023-02-28T01:33:44;4.16;56.71
68578;SHT31;61668;45.388;11.784;2023-02-28T01:36:11;4.16;56.77
68578;SHT31;61668;45.388;11.784;2023-02-28T01:38:40;4.15;56.86
68578;SHT31;61668;45.388;11.784;2023-02-28T01:41:06;4.14;56.88
68578;SHT31;61668;45.388;11.784;2023-02-28T01:43:52;4.13;56.93
68578;SHT31;61668;45.388;11.784;2023-02-28T01:46:28;4.13;56.95
68578;SHT31;61668;45.388;11.784;2023-02-28T01:51:42;4.11;56.96
68578;SHT31;61668;45.388;11.784;2023-02-28T01:54:11;4.09;56.93
68578;SHT31;61668;45.388;11.784;2023-02-28T01:56:43;4.10;56.96
68578;SHT31;61668;45.388;11.784;2023-02-28T01:59:19;4.08;57.03
68578;SHT31;61668;45.388;11.784;2023-02-28T02:01:59;4.08;57.02
68578;SHT31;61668;45.388;11.784;2023-02-28T02:04:27;4.09;57.02
68578;SHT31;61668;45.388;11.784;2023-02-28T02:07:02;4.07;56.98
68578;SHT31;61668;45.388;11.784;2023-02-28T02:09:28;4.07;56.91
68578;SHT31;61668;45.388;11.784;2023-02-28T02:11:54;4.07;56.97
68578;SHT31;61668;45.388;11.784;2023-02-28T02:14:31;4.07;57.02
68578;SHT31;61668;45.388;11.784;2023-02-28T02:23:13;4.03;57.63
68578;SHT31;61668;45.388;11.784;2023-02-28T02:25:56;3.99;57.95
68578;SHT31;61668;45.388;11.784;2023-02-28T02:32:16;3.90;58.26
68578;SHT31;61668;45.388;11.784;2023-02-28T02:35:05;3.86;58.39
68578;SHT31;61668;45.388;11.784;2023-02-28T02:41:09;3.80;58.51
68578;SHT31;61668;45.388;11.784;2023-02-28T02:44:13;3.78;58.50
68578;SHT31;61668;45.388;11.784;2023-02-28T02:46:51;3.77;58.53
68578;SHT31;61668;45.388;11.784;2023-02-28T02:49:31;3.77;58.50
68578;SHT31;61668;45.388;11.784;2023-02-28T02:52:02;3.76;58.49
68578;SHT31;61668;45.388;11.784;2023-02-28T02:54:33;3.75;58.56
68578;SHT31;61668;45.388;11.784;2023-02-28T02:57:04;3.74;58.51
68578;SHT31;61668;45.388;11.784;2023-02-28T02:59:35;3.72;58.52
68578;SHT31;61668;45.388;11.784;2023-02-28T03:02:06;3.71;58.56
68578;SHT31;61668;45.388;11.784;2023-02-28T03:04:42;3.70;58.68
68578;SHT31;61668;45.388;11.784;2023-02-28T03:07:11;3.68;58.79
68578;SHT31;61668;45.388;11.784;2023-02-28T03:09:37;3.67;58.86
68578;SHT31;61668;45.388;11.784;2023-02-28T03:12:03;3.65;58.98
68578;SHT31;61668;45.388;11.784;2023-02-28T03:23:13;3.60;59.13
68578;SHT31;61668;45.388;11.784;2023-02-28T03:25:51;3.61;59.17
68578;SHT31;61668;45.388;11.784;2023-02-28T03:28:31;3.59;59.20
68578;SHT31;61668;45.388;11.784;2023-02-28T03:34:19;3.61;59.21
68578;SHT31;61668;45.388;11.784;2023-02-28T03:36:55;3.60;59.16
68578;SHT31;61668;45.388;11.784;2023-02-28T03:39:28;3.61;59.22
68578;SHT31;61668;45.388;11.784;2023-02-28T03:42:09;3.62;59.26
68578;SHT31;61668;45.388;11.784;2023-02-28T03:44:57;3.63;59.28
68578;SHT31;61668;45.388;11.784;2023-02-28T03:50:24;3.62;59.32
68578;SHT31;61668;45.388;11.784;2023-02-28T03:53:00;3.61;59.40
68578;SHT31;61668;45.388;11.784;2023-02-28T03:55:32;3.61;59.43
68578;SHT31;61668;45.388;11.784;2023-02-28T03:58:18;3.61;59.50
68578;SHT31;61668;45.388;11.784;2023-02-28T04:00:58;3.60;59.50
68578;SHT31;61668;45.388;11.784;2023-02-28T04:03:33;3.60;59.66
68578;SHT31;61668;45.388;11.784;2023-02-28T04:06:02;3.60;59.70
68578;SHT31;61668;45.388;11.784;2023-02-28T04:08:31;3.58;59.66
68578;SHT31;61668;45.388;11.784;2023-02-28T04:11:01;3.58;59.71
68578;SHT31;61668;45.388;11.784;2023-02-28T04:13:43;3.57;59.68
68578;SHT31;61668;45.388;11.784;2023-02-28T04:16:09;3.55;59.71
68578;SHT31;61668;45.388;11.784;2023-02-28T04:18:38;3.54;59.85
68578;SHT31;61668;45.388;11.784;2023-02-28T04:21:04;3.54;59.90
68578;SHT31;61668;45.388;11.784;2023-02-28T04:23:31;3.51;59.91
68578;SHT31;61668;45.388;11.784;2023-02-28T04:25:58;3.48;59.90
68578;SHT31;61668;45.388;11.784;2023-02-28T04:28:24;3.46;59.98
68578;SHT31;61668;45.388;11.784;2023-02-28T04:30:56;3.44;59.99
68578;SHT31;61668;45.388;11.784;2023-02-28T04:33:27;3.40;60.07
68578;SHT31;61668;45.388;11.784;2023-02-28T04:36:02;3.37;60.15
68578;SHT31;61668;45.388;11.784;2023-02-28T04:38:37;3.35;60.20
68578;SHT31;61668;45.388;11.784;2023-02-28T04:41:04;3.33;60.35
68578;SHT31;61668;45.388;11.784;2023-02-28T04:43:31;3.30;60.41
68578;SHT31;61668;45.388;11.784;2023-02-28T04:45:57;3.26;60.47
68578;SHT31;61668;45.388;11.784;2023-02-28T04:48:30;3.23;60.53
68578;SHT31;61668;45.388;11.784;2023-02-28T04:51:00;3.21;60.51
68578;SHT31;61668;45.388;11.784;2023-02-28T04:53:31;3.17;60.60
68578;SHT31;61668;45.388;11.784;2023-02-28T04:55:56;3.14;60.60
68578;SHT31;61668;45.388;11.784;2023-02-28T04:58:23;3.11;60.61
68578;SHT31;61668;45.388;11.784;2023-02-28T05:00:49;3.07;60.66
68578;SHT31;61668;45.388;11.784;2023-02-28T05:03:16;3.03;60.76
68578;SHT31;61668;45.388;11.784;2023-02-28T05:05:42;3.00;60.78
68578;SHT31;61668;45.388;11.784;2023-02-28T05:08:08;2.97;60.86
68578;SHT31;61668;45.388;11.784;2023-02-28T05:10:35;2.94;60.98
68578;SHT31;61668;45.388;11.784;2023-02-28T05:13:01;2.90;61.11
68578;SHT31;61668;45.388;11.784;2023-02-28T05:15:26;2.87;61.28
68578;SHT31;61668;45.388;11.784;2023-02-28T05:17:52;2.84;61.21
68578;SHT31;61668;45.388;11.784;2023-02-28T05:20:18;2.81;61.26
68578;SHT31;61668;45.388;11.784;2023-02-28T05:22:43;2.77;61.41
68578;SHT31;61668;45.388;11.784;2023-02-28T05:25:10;2.73;61.48
68578;SHT31;61668;45.388;11.784;2023-02-28T05:27:40;2.70;61.62
68578;SHT31;61668;45.388;11.784;2023-02-28T05:30:06;2.65;61.69
68578;SHT31;61668;45.388;11.784;2023-02-28T05:32:36;2.62;61.75
68578;SHT31;61668;45.388;11.784;2023-02-28T05:35:08;2.58;61.84
68578;SHT31;61668;45.388;11.784;2023-02-28T05:37:36;2.53;62.04
68578;SHT31;61668;45.388;11.784;2023-02-28T05:40:03;2.49;62.13
68578;SHT31;61668;45.388;11.784;2023-02-28T05:42:32;2.47;62.31
68578;SHT31;61668;45.388;11.784;2023-02-28T05:44:58;2.44;62.49
68578;SHT31;61668;45.388;11.784;2023-02-28T05:47:24;2.41;62.66
68578;SHT31;61668;45.388;11.784;2023-02-28T05:49:49;2.39;62.79
68578;SHT31;61668;45.388;11.784;2023-02-28T05:52:15;2.37;62.94
68578;SHT31;61668;45.388;11.784;2023-02-28T05:54:40;2.35;63.05
68578;SHT31;61668;45.388;11.784;2023-02-28T05:57:06;2.32;63.17
68578;SHT31;61668;45.388;11.784;2023-02-28T05:59:32;2.30;63.31
68578;SHT31;61668;45.388;11.784;2023-02-28T06:01:58;2.29;63.40
68578;SHT31;61668;45.388;11.784;2023-02-28T06:04:24;2.28;63.45
68578;SHT31;61668;45.388;11.784;2023-02-28T06:06:49;2.27;63.51
68578;SHT31;61668;45.388;11.784;2023-02-28T06:09:16;2.27;63.56
68578;SHT31;61668;45.388;11.784;2023-02-28T06:11:43;2.27;63.71
68578;SHT31;61668;45.388;11.784;2023-02-28T06:14:18;2.28;63.80
68578;SHT31;61668;45.388;11.784;2023-02-28T06:16:45;2.28;63.83
68578;SHT31;61668;45.388;11.784;2023-02-28T06:19:11;2.29;63.89
68578;SHT31;61668;45.388;11.784;2023-02-28T06:21:37;2.32;63.92
68578;SHT31;61668;45.388;11.784;2023-02-28T06:24:03;2.34;63.99
68578;SHT31;61668;45.388;11.784;2023-02-28T06:26:29;2.37;64.05
68578;SHT31;61668;45.388;11.784;2023-02-28T06:28:55;2.41;64.09
68578;SHT31;61668;45.388;11.784;2023-02-28T06:35:02;2.50;63.90
68578;SHT31;61668;45.388;11.784;2023-02-28T06:37:30;2.54;63.87
68578;SHT31;61668;45.388;11.784;2023-02-28T06:39:57;2.61;63.80
68578;SHT31;61668;45.388;11.784;2023-02-28T06:42:23;2.65;63.75
68578;SHT31;61668;45.388;11.784;2023-02-28T06:44:56;2.71;63.58
68578;SHT31;61668;45.388;11.784;2023-02-28T06:47:22;2.76;63.50
68578;SHT31;61668;45.388;11.784;2023-02-28T06:49:49;2.83;63.36
68578;SHT31;61668;45.388;11.784;2023-02-28T06:52:15;2.88;63.40
68578;SHT31;61668;45.388;11.784;2023-02-28T06:54:41;2.96;63.27
68578;SHT31;61668;45.388;11.784;2023-02-28T06:57:06;3.03;63.11
68578;SHT31;61668;45.388;11.784;2023-02-28T06:59:33;3.09;62.99
68578;SHT31;61668;45.388;11.784;2023-02-28T07:02:00;3.18;62.85
68578;SHT31;61668;45.388;11.784;2023-02-28T07:04:27;3.28;62.80
68578;SHT31;61668;45.388;11.784;2023-02-28T07:06:54;3.42;62.68
68578;SHT31;61668;45.388;11.784;2023-02-28T07:09:21;3.59;62.37
68578;SHT31;61668;45.388;11.784;2023-02-28T07:11:48;3.78;61.91
68578;SHT31;61668;45.388;11.784;2023-02-28T07:14:13;3.94;61.87
68578;SHT31;61668;45.388;11.784;2023-02-28T07:16:39;4.11;61.22
68578;SHT31;61668;45.388;11.784;2023-02-28T07:19:05;4.26;60.77
68578;SHT31;61668;45.388;11.784;2023-02-28T07:21:31;4.41;60.67
68578;SHT31;61668;45.388;11.784;2023-02-28T07:23:57;4.59;60.37
68578;SHT31;61668;45.388;11.784;2023-02-28T07:26:22;4.85;59.92
68578;SHT31;61668;45.388;11.784;2023-02-28T07:28:48;5.20;59.15
68578;SHT31;61668;45.388;11.784;2023-02-28T07:31:14;5.61;58.12
68578;SHT31;61668;45.388;11.784;2023-02-28T07:33:40;6.04;57.40
68578;SHT31;61668;45.388;11.784;2023-02-28T07:36:08;6.45;56.11
68578;SHT31;61668;45.388;11.784;2023-02-28T07:38:40;6.84;54.41
68578;SHT31;61668;45.388;11.784;2023-02-28T07:41:08;7.23;53.09
68578;SHT31;61668;45.388;11.784;2023-02-28T07:43:35;7.57;51.66
68578;SHT31;61668;45.388;11.784;2023-02-28T07:46:02;7.90;50.88
68578;SHT31;61668;45.388;11.784;2023-02-28T07:48:29;8.22;50.50
68578;SHT31;61668;45.388;11.784;2023-02-28T07:50:55;8.55;49.77
68578;SHT31;61668;45.388;11.784;2023-02-28T07:53:22;8.93;49.82
68578;SHT31;61668;45.388;11.784;2023-02-28T07:55:47;9.33;49.03
68578;SHT31;61668;45.388;11.784;2023-02-28T07:58:14;9.68;47.14
68578;SHT31;61668;45.388;11.784;2023-02-28T08:00:39;9.96;45.28
68578;SHT31;61668;45.388;11.784;2023-02-28T08:03:05;10.19;44.39
68578;SHT31;61668;45.388;11.784;2023-02-28T08:05:37;10.51;44.26
68578;SHT31;61668;45.388;11.784;2023-02-28T08:08:07;10.86;44.01
68578;SHT31;61668;45.388;11.784;2023-02-28T08:10:33;11.19;43.05
68578;SHT31;61668;45.388;11.784;2023-02-28T08:12:59;11.48;42.23
68578;SHT31;61668;45.388;11.784;2023-02-28T08:15:25;11.77;41.80
68578;SHT31;61668;45.388;11.784;2023-02-28T08:17:51;12.04;40.84
68578;SHT31;61668;45.388;11.784;2023-02-28T08:20:17;12.27;40.07
68578;SHT31;61668;45.388;11.784;2023-02-28T08:22:44;12.43;39.20
68578;SHT31;61668;45.388;11.784;2023-02-28T08:25:10;12.72;39.38
68578;SHT31;61668;45.388;11.784;2023-02-28T08:27:36;13.01;39.12
68578;SHT31;61668;45.388;11.784;2023-02-28T08:30:02;13.35;38.84
68578;SHT31;61668;45.388;11.784;2023-02-28T08:32:29;13.64;38.22
68578;SHT31;61668;45.388;11.784;2023-02-28T08:34:55;13.91;38.07
68578;SHT31;61668;45.388;11.784;2023-02-28T08:37:21;14.23;37.21
68578;SHT31;61668;45.388;11.784;2023-02-28T08:39:46;14.47;36.40
68578;SHT31;61668;45.388;11.784;2023-02-28T08:42:12;14.70;36.14
68578;SHT31;61668;45.388;11.784;2023-02-28T08:44:38;14.76;35.22
68578;SHT31;61668;45.388;11.784;2023-02-28T08:47:05;14.99;35.10
68578;SHT31;61668;45.388;11.784;2023-02-28T08:49:31;15.15;34.23
68578;SHT31;61668;45.388;11.784;2023-02-28T08:51:57;15.29;33.94
68578;SHT31;61668;45.388;11.784;2023-02-28T08:54:23;15.45;34.30
68578;SHT31;61668;45.388;11.784;2023-02-28T08:56:49;15.73;34.13
68578;SHT31;61668;45.388;11.784;2023-02-28T08:59:15;16.04;34.34
68578;SHT31;61668;45.388;11.784;2023-02-28T09:01:41;16.24;33.20
68578;SHT31;61668;45.388;11.784;2023-02-28T09:04:08;16.31;32.46
68578;SHT31;61668;45.388;11.784;2023-02-28T09:06:35;16.29;32.63
68578;SHT31;61668;45.388;11.784;2023-02-28T09:09:01;16.39;32.66
68578;SHT31;61668;45.388;11.784;2023-02-28T09:11:30;16.44;31.61
68578;SHT31;61668;45.388;11.784;2023-02-28T09:13:57;16.55;31.82
68578;SHT31;61668;45.388;11.784;2023-02-28T09:16:25;16.66;31.90
68578;SHT31;61668;45.388;11.784;2023-02-28T09:18:51;16.84;31.78
68578;SHT31;61668;45.388;11.784;2023-02-28T09:21:18;17.01;31.69
68578;SHT31;61668;45.388;11.784;2023-02-28T09:23:45;17.12;31.70
68578;SHT31;61668;45.388;11.784;2023-02-28T09:26:14;17.28;31.21
68578;SHT31;61668;45.388;11.784;2023-02-28T09:28:43;17.37;30.32
68578;SHT31;61668;45.388;11.784;2023-02-28T09:31:17;17.40;30.03
68578;SHT31;61668;45.388;11.784;2023-02-28T09:33:49;17.43;29.99
68578;SHT31;61668;45.388;11.784;2023-02-28T09:36:17;17.61;30.87
68578;SHT31;61668;45.388;11.784;2023-02-28T09:38:44;17.77;30.53
68578;SHT31;61668;45.388;11.784;2023-02-28T09:41:16;17.83;30.19
68578;SHT31;61668;45.388;11.784;2023-02-28T09:43:58;17.68;29.88
68578;SHT31;61668;45.388;11.784;2023-02-28T09:46:30;17.40;30.26
68578;SHT31;61668;45.388;11.784;2023-02-28T09:48:57;17.28;31.07
68578;SHT31;61668;45.388;11.784;2023-02-28T09:52:18;17.21;30.88
68578;SHT31;61668;45.388;11.784;2023-02-28T09:54:24;16.99;31.09
68578;SHT31;61668;45.388;11.784;2023-02-28T10:00:19;16.64;31.31
68578;SHT31;61668;45.388;11.784;2023-02-28T10:03:24;16.13;32.06
68578;SHT31;61668;45.388;11.784;2023-02-28T10:08:32;15.52;32.69
68578;SHT31;61668;45.388;11.784;2023-02-28T10:11:01;15.34;33.06
68578;SHT31;61668;45.388;11.784;2023-02-28T10:16:27;15.01;33.80
68578;SHT31;61668;45.388;11.784;2023-02-28T10:22:14;14.46;34.54
68578;SHT31;61668;45.388;11.784;2023-02-28T10:25:22;14.19;35.19
68578;SHT31;61668;45.388;11.784;2023-02-28T10:28:28;14.06;35.96
68578;SHT31;61668;45.388;11.784;2023-02-28T10:30:50;14.01;36.53
68578;SHT31;61668;45.388;11.784;2023-02-28T10:33:22;13.95;36.29
68578;SHT31;61668;45.388;11.784;2023-02-28T10:35:55;13.72;36.18
68578;SHT31;61668;45.388;11.784;2023-02-28T10:38:22;13.47;36.59
68578;SHT31;61668;45.388;11.784;2023-02-28T10:41:07;13.15;36.85
68578;SHT31;61668;45.388;11.784;2023-02-28T10:43:37;12.77;37.31
68578;SHT31;61668;45.388;11.784;2023-02-28T10:51:03;12.10;38.82
68578;SHT31;61668;45.388;11.784;2023-02-28T10:53:34;11.87;39.04
68578;SHT31;61668;45.388;11.784;2023-02-28T10:56:17;11.66;39.53
68578;SHT31;61668;45.388;11.784;2023-02-28T10:58:48;11.55;39.95
68578;SHT31;61668;45.388;11.784;2023-02-28T11:04:23;11.36;40.88
68578;SHT31;61668;45.388;11.784;2023-02-28T11:07:21;11.34;41.02
68578;SHT31;61668;45.388;11.784;2023-02-28T11:09:50;11.33;41.16
68578;SHT31;61668;45.388;11.784;2023-02-28T11:12:33;11.27;41.17
68578;SHT31;61668;45.388;11.784;2023-02-28T11:15:14;11.21;41.24
68578;SHT31;61668;45.388;11.784;2023-02-28T11:21:06;11.13;41.81
68578;SHT31;61668;45.388;11.784;2023-02-28T11:23:35;11.15;42.16
68578;SHT31;61668;45.388;11.784;2023-02-28T11:26:05;11.14;42.13
68578;SHT31;61668;45.388;11.784;2023-02-28T11:28:35;11.11;42.16
68578;SHT31;61668;45.388;11.784;2023-02-28T11:33:52;11.11;42.37
68578;SHT31;61668;45.388;11.784;2023-02-28T11:36:21;11.16;42.40
68578;SHT31;61668;45.388;11.784;2023-02-28T11:38:50;11.21;42.48
68578;SHT31;61668;45.388;11.784;2023-02-28T11:44:03;11.41;42.40
68578;SHT31;61668;45.388;11.784;2023-02-28T11:46:51;11.48;42.58
68578;SHT31;61668;45.388;11.784;2023-02-28T11:49:50;11.53;42.23
68578;SHT31;61668;45.388;11.784;2023-02-28T11:55:31;11.45;42.28
68578;SHT31;61668;45.388;11.784;2023-02-28T11:58:23;11.42;42.18
68578;SHT31;61668;45.388;11.784;2023-02-28T12:09:44;11.35;42.43
68578;SHT31;61668;45.388;11.784;2023-02-28T12:15:38;11.39;42.67
68578;SHT31;61668;45.388;11.784;2023-02-28T12:21:33;11.37;42.28
68578;SHT31;61668;45.388;11.784;2023-02-28T12:24:26;11.38;42.48
68578;SHT31;61668;45.388;11.784;2023-02-28T12:27:15;11.39;42.47
68578;SHT31;61668;45.388;11.784;2023-02-28T12:32:38;11.37;42.32
68578;SHT31;61668;45.388;11.784;2023-02-28T12:40:18;11.41;43.11
68578;SHT31;61668;45.388;11.784;2023-02-28T12:42:49;11.50;43.17
68578;SHT31;61668;45.388;11.784;2023-02-28T12:45:24;11.53;42.22
68578;SHT31;61668;45.388;11.784;2023-02-28T12:48:06;11.53;42.53
68578;SHT31;61668;45.388;11.784;2023-02-28T12:50:36;11.51;42.20
68578;SHT31;61668;45.388;11.784;2023-02-28T12:53:14;11.48;42.76
68578;SHT31;61668;45.388;11.784;2023-02-28T12:59:48;11.41;42.79
68578;SHT31;61668;45.388;11.784;2023-02-28T13:14:05;11.34;42.57
68578;SHT31;61668;45.388;11.784;2023-02-28T13:25:04;11.37;43.77
68578;SHT31;61668;45.388;11.784;2023-02-28T13:27:54;11.35;43.40
68578;SHT31;61668;45.388;11.784;2023-02-28T13:36:05;11.21;43.71
68578;SHT31;61668;45.388;11.784;2023-02-28T13:38:47;11.19;43.67
68578;SHT31;61668;45.388;11.784;2023-02-28T13:49:18;11.18;44.47
68578;SHT31;61668;45.388;11.784;2023-02-28T13:51:50;11.18;44.52
68578;SHT31;61668;45.388;11.784;2023-02-28T14:06:48;11.21;44.66
68578;SHT31;61668;45.388;11.784;2023-02-28T14:12:17;11.26;45.61
68578;SHT31;61668;45.388;11.784;2023-02-28T14:18:24;11.31;46.32
68578;SHT31;61668;45.388;11.784;2023-02-28T14:20:57;11.30;46.32
68578;SHT31;61668;45.388;11.784;2023-02-28T14:23:56;11.26;46.39
68578;SHT31;61668;45.388;11.784;2023-02-28T14:26:36;11.22;46.54
68578;SHT31;61668;45.388;11.784;2023-02-28T14:38:23;11.18;46.76
68578;SHT31;61668;45.388;11.784;2023-02-28T14:40:55;11.14;46.65
68578;SHT31;61668;45.388;11.784;2023-02-28T14:43:24;11.08;46.81
68578;SHT31;61668;45.388;11.784;2023-02-28T14:45:54;11.02;46.90
68578;SHT31;61668;45.388;11.784;2023-02-28T14:48:23;10.99;47.13
68578;SHT31;61668;45.388;11.784;2023-02-28T14:50:55;10.98;47.35
68578;SHT31;61668;45.388;11.784;2023-02-28T14:53:26;10.96;47.18
68578;SHT31;61668;45.388;11.784;2023-02-28T14:55:54;10.93;47.33
68578;SHT31;61668;45.388;11.784;2023-02-28T14:58:30;10.92;47.44
68578;SHT31;61668;45.388;11.784;2023-02-28T15:00:59;10.92;47.56
68578;SHT31;61668;45.388;11.784;2023-02-28T15:03:35;10.92;47.57
68578;SHT31;61668;45.388;11.784;2023-02-28T15:06:04;10.91;47.55
68578;SHT31;61668;45.388;11.784;2023-02-28T15:08:38;10.87;47.64
68578;SHT31;61668;45.388;11.784;2023-02-28T15:13:50;10.84;47.90
68578;SHT31;61668;45.388;11.784;2023-02-28T15:16:21;10.80;47.71
68578;SHT31;61668;45.388;11.784;2023-02-28T15:21:34;10.73;48.12
68578;SHT31;61668;45.388;11.784;2023-02-28T15:26:59;10.62;48.68
68578;SHT31;61668;45.388;11.784;2023-02-28T15:29:31;10.56;48.67
68578;SHT31;61668;45.388;11.784;2023-02-28T15:32:20;10.49;48.82
68578;SHT31;61668;45.388;11.784;2023-02-28T15:34:59;10.44;49.15
68578;SHT31;61668;45.388;11.784;2023-02-28T15:38:35;10.39;49.26
68578;SHT31;61668;45.388;11.784;2023-02-28T15:40:52;10.32;49.43
68578;SHT31;61668;45.388;11.784;2023-02-28T15:43:24;10.23;49.65
68578;SHT31;61668;45.388;11.784;2023-02-28T15:48:54;10.04;50.74
68578;SHT31;61668;45.388;11.784;2023-02-28T15:51:27;9.93;51.25
68578;SHT31;61668;45.388;11.784;2023-02-28T15:54:00;9.83;51.62
68578;SHT31;61668;45.388;11.784;2023-02-28T15:56:42;9.73;51.86
68578;SHT31;61668;45.388;11.784;2023-02-28T15:59:27;9.65;52.16
68578;SHT31;61668;45.388;11.784;2023-02-28T16:02:15;9.58;52.54
68578;SHT31;61668;45.388;11.784;2023-02-28T16:07:31;9.46;53.10
68578;SHT31;61668;45.388;11.784;2023-02-28T16:09:58;9.42;53.30
68578;SHT31;61668;45.388;11.784;2023-02-28T16:12:26;9.37;53.74
68578;SHT31;61668;45.388;11.784;2023-02-28T16:14:55;9.32;54.11
68578;SHT31;61668;45.388;11.784;2023-02-28T16:17:25;9.27;54.28
68578;SHT31;61668;45.388;11.784;2023-02-28T16:19:58;9.25;54.57
68578;SHT31;61668;45.388;11.784;2023-02-28T16:22:25;9.20;54.79
68578;SHT31;61668;45.388;11.784;2023-02-28T16:24:51;9.15;54.88
68578;SHT31;61668;45.388;11.784;2023-02-28T16:27:18;9.10;54.90
68578;SHT31;61668;45.388;11.784;2023-02-28T16:29:51;9.05;54.93
68578;SHT31;61668;45.388;11.784;2023-02-28T16:32:18;9.03;55.09
68578;SHT31;61668;45.388;11.784;2023-02-28T16:34:44;8.99;55.27
68578;SHT31;61668;45.388;11.784;2023-02-28T16:37:13;8.95;55.40
68578;SHT31;61668;45.388;11.784;2023-02-28T16:39:42;8.90;55.57
68578;SHT31;61668;45.388;11.784;2023-02-28T16:42:15;8.86;55.75
68578;SHT31;61668;45.388;11.784;2023-02-28T16:44:50;8.81;55.85
68578;SHT31;61668;45.388;11.784;2023-02-28T16:47:17;8.77;55.92
68578;SHT31;61668;45.388;11.784;2023-02-28T16:49:43;8.73;56.03
68578;SHT31;61668;45.388;11.784;2023-02-28T16:52:10;8.70;56.17
68578;SHT31;61668;45.388;11.784;2023-02-28T16:54:37;8.68;56.39
68578;SHT31;61668;45.388;11.784;2023-02-28T16:57:04;8.65;56.62
68578;SHT31;61668;45.388;11.784;2023-02-28T16:59:31;8.60;56.83
68578;SHT31;61668;45.388;11.784;2023-02-28T17:01:57;8.56;57.03
68578;SHT31;61668;45.388;11.784;2023-02-28T17:04:24;8.51;57.12
68578;SHT31;61668;45.388;11.784;2023-02-28T17:06:51;8.47;57.31
68578;SHT31;61668;45.388;11.784;2023-02-28T17:09:18;8.43;57.48
68578;SHT31;61668;45.388;11.784;2023-02-28T17:11:48;8.39;57.63
68578;SHT31;61668;45.388;11.784;2023-02-28T17:14:14;8.36;57.75
68578;SHT31;61668;45.388;11.784;2023-02-28T17:16:41;8.32;57.89
68578;SHT31;61668;45.388;11.784;2023-02-28T17:19:09;8.27;58.01
68578;SHT31;61668;45.388;11.784;2023-02-28T17:21:38;8.22;58.20
68578;SHT31;61668;45.388;11.784;2023-02-28T17:24:06;8.16;58.28
68578;SHT31;61668;45.388;11.784;2023-02-28T17:26:33;8.12;58.39
68578;SHT31;61668;45.388;11.784;2023-02-28T17:28:59;8.06;58.54
68578;SHT31;61668;45.388;11.784;2023-02-28T17:31:25;8.02;58.60
68578;SHT31;61668;45.388;11.784;2023-02-28T17:33:52;7.98;58.60
68578;SHT31;61668;45.388;11.784;2023-02-28T17:36:25;7.93;58.67
68578;SHT31;61668;45.388;11.784;2023-02-28T17:38:52;7.89;58.79
68578;SHT31;61668;45.388;11.784;2023-02-28T17:41:20;7.83;58.88
68578;SHT31;61668;45.388;11.784;2023-02-28T17:43:46;7.78;59.03
68578;SHT31;61668;45.388;11.784;2023-02-28T17:46:21;7.72;59.14
68578;SHT31;61668;45.388;11.784;2023-02-28T17:48:50;7.68;59.29
68578;SHT31;61668;45.388;11.784;2023-02-28T17:51:19;7.64;59.37
68578;SHT31;61668;45.388;11.784;2023-02-28T17:53:46;7.59;59.24
68578;SHT31;61668;45.388;11.784;2023-02-28T17:56:13;7.55;59.14
68578;SHT31;61668;45.388;11.784;2023-02-28T17:58:46;7.51;59.03
68578;SHT31;61668;45.388;11.784;2023-02-28T18:01:12;7.47;58.93
68578;SHT31;61668;45.388;11.784;2023-02-28T18:03:38;7.44;58.87
68578;SHT31;61668;45.388;11.784;2023-02-28T18:06:04;7.40;58.82
68578;SHT31;61668;45.388;11.784;2023-02-28T18:08:31;7.36;58.78
68578;SHT31;61668;45.388;11.784;2023-02-28T18:11:00;7.32;58.73
68578;SHT31;61668;45.388;11.784;2023-02-28T18:13:26;7.31;58.70
68578;SHT31;61668;45.388;11.784;2023-02-28T18:15:53;7.28;58.61
68578;SHT31;61668;45.388;11.784;2023-02-28T18:18:19;7.25;58.56
68578;SHT31;61668;45.388;11.784;2023-02-28T18:20:45;7.23;58.50
68578;SHT31;61668;45.388;11.784;2023-02-28T18:23:13;7.19;58.43
68578;SHT31;61668;45.388;11.784;2023-02-28T18:25:39;7.17;58.28
68578;SHT31;61668;45.388;11.784;2023-02-28T18:28:05;7.15;58.08
68578;SHT31;61668;45.388;11.784;2023-02-28T18:30:32;7.14;57.49
68578;SHT31;61668;45.388;11.784;2023-02-28T18:33:01;7.15;57.17
68578;SHT31;61668;45.388;11.784;2023-02-28T18:35:28;7.15;56.50